Time;durP1;ratioP1;P1;durP2;ratioP2;P2;SDS_P1;SDS_P2;PMS_P1;PMS_P2;Temp;Humidity;BMP_temperature;BMP_pressure;BME280_temperature;BME280_humidity;BME280_pressure;Samples;Min_cycle;Max_cycle;Signal;HPM_P1;HPM_P2
2022/04/22 00:01:05;;;;;;;5.40;2.15;;;;;;;;;;5112929;28;20534;-67
2022/04/22 00:03:30;;;;;;;11.10;1.70;;;;;;;;;;5113233;28;20107;-71
2022/04/22 00:05:56;;;;;;;6.18;1.40;;;;;;;;;;5113223;28;20024;-74
2022/04/22 00:08:22;;;;;;;4.07;1.20;;;;;;;;;;5113032;27;20016;-73
2022/04/22 00:13:31;;;;;;;5.20;1.35;;;;;;;;;;5112710;28;20035;-72
2022/04/22 00:15:56;;;;;;;6.68;1.50;;;;;;;;;;5112838;28;20015;-73
2022/04/22 00:18:23;;;;;;;7.85;1.50;;;;;;;;;;5112862;28;20023;-68
2022/04/22 00:20:48;;;;;;;9.30;1.90;;;;;;;;;;5112707;28;20596;-71
2022/04/22 00:23:14;;;;;;;7.75;1.88;;;;;;;;;;5112467;28;20032;-74
2022/04/22 00:25:39;;;;;;;6.30;2.20;;;;;;;;;;5112489;27;20038;-73
2022/04/22 00:28:06;;;;;;;6.28;2.30;;;;;;;;;;5112588;28;20011;-72
2022/04/22 00:30:31;;;;;;;7.85;2.58;;;;;;;;;;5112029;28;20029;-72
2022/04/22 00:32:57;;;;;;;7.60;2.45;;;;;;;;;;5112276;28;20024;-72
2022/04/22 00:35:22;;;;;;;4.75;2.38;;;;;;;;;;5112470;28;20107;-74
2022/04/22 00:37:49;;;;;;;9.25;2.38;;;;;;;;;;5112484;28;20024;-73
2022/04/22 00:40:15;;;;;;;5.65;2.30;;;;;;;;;;5112437;28;20028;-72
2022/04/22 00:42:41;;;;;;;6.45;2.35;;;;;;;;;;5112171;27;20016;-68
2022/04/22 00:45:07;;;;;;;6.63;2.42;;;;;;;;;;5111964;28;20024;-69
2022/04/22 00:47:33;;;;;;;9.77;2.42;;;;;;;;;;5112100;28;20058;-72
2022/04/22 00:49:58;;;;;;;4.70;2.45;;;;;;;;;;5112161;28;20055;-72
2022/04/22 00:52:24;;;;;;;6.20;2.30;;;;;;;;;;5111949;28;20049;-73
2022/04/22 00:54:50;;;;;;;8.05;2.55;;;;;;;;;;5112103;28;20024;-72
2022/04/22 00:57:18;;;;;;;4.93;2.42;;;;;;;;;;5111848;28;20073;-70
2022/04/22 00:59:44;;;;;;;6.90;2.55;;;;;;;;;;5112029;27;20503;-72
2022/04/22 01:02:09;;;;;;;6.82;2.63;;;;;;;;;;5112193;28;20115;-72
2022/04/22 01:10:05;;;;;;;6.18;2.75;;;;;;;;;;5111935;28;20532;-72
2022/04/22 01:12:31;;;;;;;7.90;2.75;;;;;;;;;;5111658;28;20027;-71
2022/04/22 01:14:58;;;;;;;5.50;2.70;;;;;;;;;;5111568;28;20027;-73
2022/04/22 01:17:24;;;;;;;8.35;2.50;;;;;;;;;;5111701;28;20031;-71
2022/04/22 01:19:50;;;;;;;7.18;2.67;;;;;;;;;;5111437;28;20537;-72
2022/04/22 01:22:16;;;;;;;7.43;2.60;;;;;;;;;;5111203;28;20042;-73
2022/04/22 01:24:42;;;;;;;6.05;2.60;;;;;;;;;;5110950;27;20109;-73
2022/04/22 01:27:10;;;;;;;5.95;2.60;;;;;;;;;;5111418;28;20023;-72
2022/04/22 01:29:36;;;;;;;7.82;2.53;;;;;;;;;;5111284;28;20502;-73
2022/04/22 01:32:02;;;;;;;7.28;2.90;;;;;;;;;;5111219;28;20035;-73
2022/04/22 01:34:28;;;;;;;8.77;2.83;;;;;;;;;;5111406;28;20589;-69
2022/04/22 01:36:53;;;;;;;7.25;2.83;;;;;;;;;;5111261;28;20042;-67
2022/04/22 01:39:19;;;;;;;6.90;2.65;;;;;;;;;;5111256;28;20055;-71
2022/04/22 01:41:44;;;;;;;6.97;2.80;;;;;;;;;;5110842;28;20032;-71
2022/04/22 01:44:10;;;;;;;4.88;2.50;;;;;;;;;;5111194;28;20066;-73
2022/04/22 01:46:35;;;;;;;7.65;2.50;;;;;;;;;;5111161;28;20552;-72
2022/04/22 01:49:02;;;;;;;10.27;2.60;;;;;;;;;;5111363;28;20351;-74
2022/04/22 01:51:28;;;;;;;5.75;2.35;;;;;;;;;;5111110;28;20031;-72
2022/04/22 01:53:54;;;;;;;6.45;2.42;;;;;;;;;;5110793;28;20509;-70
2022/04/22 01:56:19;;;;;;;7.40;2.42;;;;;;;;;;5110848;28;20111;-74
2022/04/22 01:58:45;;;;;;;7.13;2.70;;;;;;;;;;5110854;28;20073;-70
2022/04/22 02:01:11;;;;;;;6.10;2.50;;;;;;;;;;5110731;28;20100;-72
2022/04/22 02:03:36;;;;;;;4.75;2.38;;;;;;;;;;5110887;28;20024;-72
2022/04/22 02:06:02;;;;;;;5.85;2.53;;;;;;;;;;5110862;28;20027;-69
2022/04/22 02:08:28;;;;;;;5.43;2.55;;;;;;;;;;5110730;28;20020;-73
2022/04/22 02:10:53;;;;;;;8.82;2.30;;;;;;;;;;5110403;28;20077;-68
2022/04/22 02:13:21;;;;;;;9.35;2.80;;;;;;;;;;5110395;28;20223;-68
2022/04/22 02:15:46;;;;;;;5.25;2.40;;;;;;;;;;5110446;28;20027;-74
2022/04/22 02:18:12;;;;;;;7.82;2.30;;;;;;;;;;5110737;28;20095;-75
2022/04/22 02:20:37;;;;;;;6.75;2.60;;;;;;;;;;5110572;28;20034;-69
2022/04/22 02:23:03;;;;;;;5.60;2.63;;;;;;;;;;5110589;28;20020;-74
2022/04/22 02:25:28;;;;;;;8.93;2.60;;;;;;;;;;5110588;28;20051;-70
2022/04/22 02:30:38;;;;;;;8.32;2.72;;;;;;;;;;5110486;28;20038;-70
2022/04/22 02:33:04;;;;;;;5.60;2.90;;;;;;;;;;5110251;28;20023;-71
2022/04/22 02:35:29;;;;;;;6.15;2.65;;;;;;;;;;5110741;28;20033;-68
2022/04/22 02:37:55;;;;;;;9.60;2.90;;;;;;;;;;5110455;28;20114;-68
2022/04/22 02:45:49;;;;;;;6.05;2.60;;;;;;;;;;5110578;28;20501;-70
2022/04/22 02:48:15;;;;;;;7.60;2.90;;;;;;;;;;5110150;28;20099;-71
2022/04/22 02:50:40;;;;;;;9.48;3.30;;;;;;;;;;5109981;28;20429;-68
2022/04/22 02:53:06;;;;;;;9.73;2.85;;;;;;;;;;5109839;28;20479;-72
2022/04/22 02:55:35;;;;;;;5.78;2.88;;;;;;;;;;5110366;28;20433;-71
2022/04/22 02:58:01;;;;;;;7.50;3.00;;;;;;;;;;5110269;28;20465;-70
2022/04/22 03:00:26;;;;;;;7.47;2.78;;;;;;;;;;5110371;28;20028;-71
2022/04/22 03:02:52;;;;;;;6.88;2.70;;;;;;;;;;5110097;28;20035;-70
2022/04/22 03:05:17;;;;;;;6.10;2.80;;;;;;;;;;5109925;28;20533;-73
2022/04/22 03:07:43;;;;;;;8.43;2.88;;;;;;;;;;5110228;28;20344;-72
2022/04/22 03:10:08;;;;;;;7.97;2.40;;;;;;;;;;5109948;28;20059;-72
2022/04/22 03:12:34;;;;;;;5.93;2.78;;;;;;;;;;5109875;28;20026;-69
2022/04/22 03:15:00;;;;;;;6.00;2.72;;;;;;;;;;5109791;28;20043;-70
2022/04/22 03:17:25;;;;;;;5.95;2.80;;;;;;;;;;5109914;28;20084;-69
2022/04/22 03:19:51;;;;;;;7.38;3.00;;;;;;;;;;5110040;28;20028;-72
2022/04/22 03:22:16;;;;;;;5.78;2.80;;;;;;;;;;5113636;28;20031;-67
2022/04/22 03:24:42;;;;;;;6.65;2.70;;;;;;;;;;5113491;28;20431;-68
2022/04/22 03:27:08;;;;;;;7.05;3.08;;;;;;;;;;5113845;28;20039;-72
2022/04/22 03:29:35;;;;;;;6.47;2.90;;;;;;;;;;5113671;28;20023;-71
2022/04/22 03:32:01;;;;;;;7.05;2.72;;;;;;;;;;5113901;28;20051;-69
2022/04/22 03:34:27;;;;;;;7.15;2.75;;;;;;;;;;5113677;28;20033;-71
2022/04/22 03:36:52;;;;;;;6.90;2.92;;;;;;;;;;5113794;28;20027;-70
2022/04/22 03:39:18;;;;;;;6.80;2.90;;;;;;;;;;5113498;28;20059;-71
2022/04/22 03:41:44;;;;;;;6.28;2.90;;;;;;;;;;5113282;28;20028;-71
2022/04/22 03:44:10;;;;;;;10.68;3.08;;;;;;;;;;5112804;28;20035;-68
2022/04/22 03:46:36;;;;;;;5.47;3.00;;;;;;;;;;5113474;28;20027;-68
2022/04/22 03:49:04;;;;;;;7.38;2.88;;;;;;;;;;5113669;28;20024;-72
2022/04/22 03:51:29;;;;;;;6.60;2.97;;;;;;;;;;5113541;28;20088;-73
2022/04/22 03:53:55;;;;;;;6.82;2.80;;;;;;;;;;5111934;28;20023;-69
2022/04/22 03:59:05;;;;;;;5.25;2.60;;;;;;;;;;5113082;28;20038;-69
2022/04/22 04:01:31;;;;;;;5.88;2.95;;;;;;;;;;5112961;28;20422;-69
2022/04/22 04:03:56;;;;;;;4.43;2.60;;;;;;;;;;5113067;28;20467;-71
2022/04/22 04:06:23;;;;;;;6.40;2.72;;;;;;;;;;5113295;28;20023;-71
2022/04/22 04:15:57;;;;;;;7.28;2.63;;;;;;;;;;5113260;28;20438;-67
2022/04/22 04:17:04;;;;;;;6.80;2.88;;;;;;;;;;5112956;28;20379;-69
2022/04/22 04:24:57;;;;;;;6.70;2.63;;;;;;;;;;5112550;28;20502;-73
2022/04/22 04:27:23;;;;;;;7.80;3.05;;;;;;;;;;5112733;28;20023;-72
2022/04/22 04:29:48;;;;;;;7.07;2.70;;;;;;;;;;5112507;28;20051;-72
2022/04/22 04:32:15;;;;;;;8.23;2.75;;;;;;;;;;5111761;28;20541;-73
2022/04/22 04:34:41;;;;;;;7.57;2.75;;;;;;;;;;5112600;27;20478;-73
2022/04/22 04:37:07;;;;;;;6.93;2.78;;;;;;;;;;5112696;28;20660;-68
2022/04/22 04:39:33;;;;;;;5.25;2.67;;;;;;;;;;5112721;28;20015;-73
2022/04/22 04:41:58;;;;;;;5.70;3.03;;;;;;;;;;5112527;28;20055;-73
2022/04/22 04:44:25;;;;;;;6.30;2.80;;;;;;;;;;5112098;28;20494;-71
2022/04/22 04:46:50;;;;;;;10.27;3.22;;;;;;;;;;5112375;28;20020;-72
2022/04/22 04:49:16;;;;;;;6.63;3.03;;;;;;;;;;5112436;28;20190;-71
2022/04/22 04:51:42;;;;;;;8.57;3.00;;;;;;;;;;5112056;28;20508;-68
2022/04/22 04:54:07;;;;;;;9.63;2.97;;;;;;;;;;5111859;28;20026;-74
2022/04/22 04:56:33;;;;;;;6.93;3.13;;;;;;;;;;5112548;28;20452;-73
2022/04/22 04:58:58;;;;;;;12.27;3.50;;;;;;;;;;5112181;28;20027;-72
2022/04/22 05:01:23;;;;;;;5.95;2.85;;;;;;;;;;5110674;28;20038;-68
2022/04/22 05:03:49;;;;;;;11.05;3.00;;;;;;;;;;5111976;28;20479;-68
2022/04/22 05:06:15;;;;;;;7.38;2.88;;;;;;;;;;5111706;28;20023;-70
2022/04/22 05:08:40;;;;;;;5.10;2.83;;;;;;;;;;5111724;28;20634;-73
2022/04/22 05:11:06;;;;;;;5.20;2.78;;;;;;;;;;5111566;28;20410;-72
2022/04/22 05:13:31;;;;;;;6.10;2.92;;;;;;;;;;5111644;28;20023;-74
2022/04/22 05:15:57;;;;;;;9.65;2.90;;;;;;;;;;5111642;28;20315;-73
2022/04/22 05:18:23;;;;;;;10.02;3.30;;;;;;;;;;5111797;28;20035;-68
2022/04/22 05:20:49;;;;;;;10.90;3.63;;;;;;;;;;5111587;28;20027;-74
2022/04/22 05:23:14;;;;;;;7.60;3.35;;;;;;;;;;5111410;28;20364;-73
2022/04/22 05:25:40;;;;;;;8.85;3.35;;;;;;;;;;5111397;28;20058;-73
2022/04/22 05:28:06;;;;;;;16.60;5.60;;;;;;;;;;5111411;28;20433;-73
2022/04/22 05:33:16;;;;;;;12.50;3.42;;;;;;;;;;5111709;28;20080;-72
2022/04/22 05:35:42;;;;;;;14.48;3.97;;;;;;;;;;5111542;28;20290;-73
2022/04/22 05:38:08;;;;;;;10.30;4.15;;;;;;;;;;5111458;28;20031;-72
2022/04/22 05:40:38;;;;;;;13.02;4.38;;;;;;;;;;5111665;28;20035;-70
2022/04/22 05:43:06;;;;;;;5.63;3.30;;;;;;;;;;5111247;28;20441;-74
2022/04/22 05:45:32;;;;;;;9.10;3.35;;;;;;;;;;5110175;28;20331;-69
2022/04/22 05:47:57;;;;;;;5.53;3.30;;;;;;;;;;5111515;28;20032;-72
2022/04/22 05:50:24;;;;;;;8.75;3.30;;;;;;;;;;5111258;28;20042;-71
2022/04/22 05:52:49;;;;;;;11.05;3.67;;;;;;;;;;5111157;28;20065;-74
2022/04/22 05:55:17;;;;;;;8.80;3.60;;;;;;;;;;5110930;28;20028;-73
2022/04/22 05:57:44;;;;;;;7.95;3.80;;;;;;;;;;5110878;28;20080;-75
2022/04/22 06:00:12;;;;;;;8.15;3.22;;;;;;;;;;5110785;28;20035;-73
2022/04/22 06:02:41;;;;;;;7.43;3.30;;;;;;;;;;5110838;28;20028;-73
2022/04/22 06:05:08;;;;;;;6.63;3.55;;;;;;;;;;5110731;28;20140;-72
2022/04/22 06:07:34;;;;;;;9.57;3.60;;;;;;;;;;5110946;28;20073;-71
2022/04/22 06:12:44;;;;;;;12.13;3.67;;;;;;;;;;5110966;28;20119;-69
2022/04/22 06:15:09;;;;;;;11.60;3.60;;;;;;;;;;5110516;28;20074;-70
2022/04/22 06:17:34;;;;;;;11.60;3.85;;;;;;;;;;5110434;28;20027;-73
2022/04/22 06:20:00;;;;;;;7.70;3.63;;;;;;;;;;5110482;28;20022;-72
2022/04/22 06:22:26;;;;;;;7.32;3.47;;;;;;;;;;5110607;28;20035;-72
2022/04/22 06:24:52;;;;;;;6.93;3.45;;;;;;;;;;5110353;28;20188;-68
2022/04/22 06:27:26;;;;;;;8.77;3.50;;;;;;;;;;5110561;28;20023;-69
2022/04/22 06:29:53;;;;;;;8.18;3.45;;;;;;;;;;5109165;28;20441;-70
2022/04/22 06:32:21;;;;;;;8.90;3.75;;;;;;;;;;5110228;28;20027;-72
2022/04/22 06:34:47;;;;;;;8.88;3.60;;;;;;;;;;5110099;28;20463;-71
2022/04/22 06:37:13;;;;;;;7.95;3.63;;;;;;;;;;5110494;28;20065;-73
2022/04/22 06:47:59;;;;;;;9.10;3.30;;;;;;;;;;5110568;28;20391;-74
2022/04/22 06:50:25;;;;;;;6.00;3.30;;;;;;;;;;5110269;28;20495;-72
2022/04/22 06:52:51;;;;;;;8.07;3.25;;;;;;;;;;5110151;28;20023;-70
2022/04/22 06:55:17;;;;;;;8.27;3.97;;;;;;;;;;5110659;28;20490;-72
2022/04/22 06:57:46;;;;;;;6.80;3.22;;;;;;;;;;5114588;28;20019;-67
2022/04/22 07:00:13;;;;;;;7.13;3.60;;;;;;;;;;5114517;28;20016;-74
2022/04/22 07:02:39;;;;;;;8.88;3.13;;;;;;;;;;5114462;28;20028;-74
2022/04/22 07:05:05;;;;;;;8.68;3.10;;;;;;;;;;5114235;28;20391;-73
2022/04/22 07:07:31;;;;;;;9.85;3.20;;;;;;;;;;5113989;28;20473;-71
2022/04/22 07:09:57;;;;;;;6.70;3.10;;;;;;;;;;5114095;28;20519;-71
2022/04/22 07:12:26;;;;;;;6.85;3.28;;;;;;;;;;5114019;28;20032;-73
2022/04/22 07:15:03;;;;;;;11.30;3.40;;;;;;;;;;5113896;28;20110;-72
2022/04/22 07:17:35;;;;;;;8.18;3.35;;;;;;;;;;5114132;28;20336;-68
2022/04/22 07:20:03;;;;;;;6.20;3.38;;;;;;;;;;5114001;28;20047;-70
2022/04/22 07:22:29;;;;;;;11.20;3.42;;;;;;;;;;5113837;28;20087;-71
2022/04/22 07:24:56;;;;;;;6.38;3.03;;;;;;;;;;5113439;28;20135;-73
2022/04/22 07:27:25;;;;;;;8.82;3.38;;;;;;;;;;5114041;28;20028;-73
2022/04/22 07:29:50;;;;;;;9.10;3.35;;;;;;;;;;5113729;28;20024;-71
2022/04/22 07:32:16;;;;;;;9.50;3.38;;;;;;;;;;5113569;28;20027;-73
2022/04/22 07:34:42;;;;;;;9.25;3.88;;;;;;;;;;5113678;27;20398;-74
2022/04/22 07:37:09;;;;;;;7.20;3.38;;;;;;;;;;5113628;28;20028;-72
2022/04/22 07:39:38;;;;;;;12.07;3.65;;;;;;;;;;5113449;28;20028;-74
2022/04/22 07:42:14;;;;;;;8.38;3.10;;;;;;;;;;5113278;28;20047;-72
2022/04/22 07:47:26;;;;;;;12.68;3.22;;;;;;;;;;5113390;28;20081;-74
2022/04/22 07:49:51;;;;;;;7.65;2.80;;;;;;;;;;5113312;28;20023;-67
2022/04/22 07:52:17;;;;;;;5.85;2.80;;;;;;;;;;5113179;28;20030;-71
2022/04/22 07:54:42;;;;;;;10.40;3.35;;;;;;;;;;5113365;28;20024;-72
2022/04/22 07:57:08;;;;;;;6.68;3.13;;;;;;;;;;5113130;28;20027;-73
2022/04/22 07:59:34;;;;;;;10.10;4.10;;;;;;;;;;5113249;28;20038;-72
2022/04/22 08:01:59;;;;;;;8.95;3.78;;;;;;;;;;5113073;28;20023;-69
2022/04/22 08:04:25;;;;;;;10.48;3.53;;;;;;;;;;5113501;28;20027;-72
2022/04/22 08:06:51;;;;;;;7.95;3.15;;;;;;;;;;5112252;28;20041;-73
2022/04/22 08:09:17;;;;;;;7.70;3.00;;;;;;;;;;5112974;28;20387;-72
2022/04/22 08:11:43;;;;;;;8.65;3.15;;;;;;;;;;5112985;28;20467;-68
2022/04/22 08:14:12;;;;;;;11.52;3.47;;;;;;;;;;5112728;28;20061;-71
2022/04/22 08:16:40;;;;;;;7.70;3.50;;;;;;;;;;5112507;28;20516;-73
2022/04/22 08:19:06;;;;;;;12.18;4.05;;;;;;;;;;5112614;28;20035;-73
2022/04/22 08:21:34;;;;;;;7.15;3.03;;;;;;;;;;5112812;28;20109;-68
2022/04/22 08:24:03;;;;;;;7.28;2.95;;;;;;;;;;5112916;28;20031;-75
2022/04/22 08:26:31;;;;;;;4.78;2.75;;;;;;;;;;5112458;28;20040;-68
2022/04/22 08:28:56;;;;;;;6.38;3.13;;;;;;;;;;5112693;28;20034;-70
2022/04/22 08:31:22;;;;;;;6.53;3.00;;;;;;;;;;5111313;28;20027;-74
2022/04/22 08:33:49;;;;;;;6.72;3.33;;;;;;;;;;5112508;28;20034;-72
2022/04/22 08:36:15;;;;;;;6.53;2.80;;;;;;;;;;5110969;28;20035;-67
2022/04/22 08:38:40;;;;;;;7.05;2.90;;;;;;;;;;5112629;28;20028;-71
2022/04/22 08:41:07;;;;;;;7.07;2.80;;;;;;;;;;5112667;28;20040;-69
2022/04/22 08:43:34;;;;;;;7.00;2.65;;;;;;;;;;5112607;28;20066;-68
2022/04/22 08:46:00;;;;;;;6.45;2.95;;;;;;;;;;5112176;28;20476;-69
2022/04/22 08:51:10;;;;;;;5.90;3.47;;;;;;;;;;5112292;28;20046;-69
2022/04/22 08:53:37;;;;;;;5.15;3.00;;;;;;;;;;5112116;28;20032;-75
2022/04/22 08:56:02;;;;;;;7.47;3.00;;;;;;;;;;5111967;28;20023;-68
2022/04/22 08:58:29;;;;;;;5.22;2.80;;;;;;;;;;5112242;28;20435;-67
2022/04/22 09:00:57;;;;;;;6.00;2.97;;;;;;;;;;5111987;28;20038;-68
2022/04/22 09:03:28;;;;;;;5.88;3.10;;;;;;;;;;5112286;28;20024;-72
2022/04/22 09:05:58;;;;;;;8.52;3.05;;;;;;;;;;5111696;28;20460;-68
2022/04/22 09:08:30;;;;;;;8.27;4.03;;;;;;;;;;5111907;28;20089;-69
2022/04/22 09:10:57;;;;;;;11.02;3.20;;;;;;;;;;5111634;28;20480;-68
2022/04/22 09:13:27;;;;;;;11.00;3.80;;;;;;;;;;5111921;28;20024;-69
2022/04/22 09:15:52;;;;;;;12.73;3.30;;;;;;;;;;5111492;28;20024;-69
2022/04/22 09:18:18;;;;;;;13.70;3.22;;;;;;;;;;5111475;28;20382;-72
2022/04/22 09:20:47;;;;;;;11.13;3.30;;;;;;;;;;5111676;27;20415;-67
2022/04/22 09:23:33;;;;;;;8.68;3.40;;;;;;;;;;5111612;28;20023;-74
2022/04/22 09:26:00;;;;;;;8.07;3.17;;;;;;;;;;5111133;28;20578;-67
2022/04/22 09:28:26;;;;;;;10.05;3.08;;;;;;;;;;5111450;28;20092;-68
2022/04/22 09:31:04;;;;;;;9.10;3.22;;;;;;;;;;5111308;28;20051;-68
2022/04/22 09:33:41;;;;;;;6.20;2.78;;;;;;;;;;5111523;28;20032;-69
2022/04/22 09:45:04;;;;;;;12.57;2.80;;;;;;;;;;5110897;28;20033;-68
2022/04/22 09:47:31;;;;;;;10.07;2.90;;;;;;;;;;5111095;28;20051;-72
2022/04/22 09:49:58;;;;;;;11.98;2.60;;;;;;;;;;5111117;28;20394;-68
2022/04/22 09:52:25;;;;;;;10.50;2.65;;;;;;;;;;5111144;27;20038;-70
2022/04/22 09:55:02;;;;;;;11.75;2.10;;;;;;;;;;5110868;28;20019;-69
2022/04/22 09:57:28;;;;;;;9.02;1.90;;;;;;;;;;5110995;28;20110;-73
2022/04/22 09:59:55;;;;;;;9.63;1.77;;;;;;;;;;5111021;28;20019;-73
2022/04/22 10:02:29;;;;;;;15.75;2.55;;;;;;;;;;5110833;28;20497;-72
2022/04/22 10:04:56;;;;;;;8.75;1.90;;;;;;;;;;5111148;27;20023;-68
2022/04/22 10:07:27;;;;;;;12.65;2.10;;;;;;;;;;5111332;28;20019;-68
2022/04/22 10:09:55;;;;;;;8.05;2.28;;;;;;;;;;5110698;27;20395;-71
2022/04/22 10:12:24;;;;;;;10.23;1.65;;;;;;;;;;5110828;28;20085;-69
2022/04/22 10:14:55;;;;;;;15.50;2.50;;;;;;;;;;5110945;28;20019;-68
2022/04/22 10:17:20;;;;;;;;;;;;;;;;;;5110893;28;20024;-69
2022/04/22 10:19:45;;;;;;;;;;;;;;;;;;5111002;28;19962;-68
2022/04/22 10:22:11;;;;;;;;;;;;;;;;;;5110916;28;19912;-66
2022/04/22 10:24:37;;;;;;;;;;;;;;;;;;5111094;28;19956;-69
2022/04/22 10:27:04;;;;;;;;;;;;;;;;;;5110867;28;20403;-73
2022/04/22 10:29:31;;;;;;;;;;;;;;;;;;5110669;28;19911;-68
2022/04/22 10:31:56;;;;;;;;;;;;;;;;;;5110373;28;20364;-69
2022/04/22 10:34:35;;;;;;;;;;;;;;;;;;5110755;28;20371;-69
2022/04/22 10:37:01;;;;;;;;;;;;;;;;;;5111069;28;19952;-69
2022/04/22 10:39:34;;;;;;;;;;;;;;;;;;5110802;28;19912;-68
2022/04/22 10:41:59;;;;;;;;;;;;;;;;;;5110918;28;19919;-67
2022/04/22 10:47:15;;;;;;;;;;;;;;;;;;5110705;28;19923;-71
2022/04/22 10:49:42;;;;;;;;;;;;;;;;;;5110787;28;19980;-68
2022/04/22 10:52:14;;;;;;;;;;;;;;;;;;5110693;28;19951;-69
2022/04/22 10:54:52;;;;;;;;;;;;;;;;;;5110686;28;19912;-70
2022/04/22 10:57:18;;;;;;;;;;;;;;;;;;5110792;28;20337;-72
2022/04/22 10:59:44;;;;;;;;;;;;;;;;;;5110638;28;20375;-67
2022/04/22 11:02:29;;;;;;;;;;;;;;;;;;5110584;28;19957;-68
2022/04/22 11:05:13;;;;;;;;;;;;;;;;;;5110605;28;20299;-68
2022/04/22 11:07:50;;;;;;;;;;;;;;;;;;5110465;28;19916;-70
2022/04/22 11:10:15;;;;;;;;;;;;;;;;;;5110447;28;19918;-68
2022/04/22 11:12:54;;;;;;;;;;;;;;;;;;5110454;28;20039;-70
2022/04/22 11:15:38;;;;;;;;;;;;;;;;;;5110307;28;20426;-69
2022/04/22 11:18:03;;;;;;;;;;;;;;;;;;5110896;28;19912;-68
2022/04/22 11:20:28;;;;;;;;;;;;;;;;;;5110450;28;20279;-67
2022/04/22 11:22:58;;;;;;;;;;;;;;;;;;5110995;28;19911;-70
2022/04/22 11:25:27;;;;;;;;;;;;;;;;;;5110053;28;20015;-68
2022/04/22 11:27:56;;;;;;;;;;;;;;;;;;5110378;28;19950;-69
2022/04/22 11:30:22;;;;;;;;;;;;;;;;;;5110319;28;19908;-69
2022/04/22 11:32:51;;;;;;;;;;;;;;;;;;5110345;28;20056;-68
2022/04/22 11:35:20;;;;;;;;;;;;;;;;;;5110614;28;20374;-70
2022/04/22 11:37:55;;;;;;;;;;;;;;;;;;5110289;28;20374;-68
2022/04/22 11:40:21;;;;;;;;;;;;;;;;;;5110451;28;19918;-70
2022/04/22 11:42:46;;;;;;;;;;;;;;;;;;5113132;28;19911;-68
2022/04/22 11:45:14;;;;;;;;;;;;;;;;;;5114212;28;20027;-68
2022/04/22 11:47:39;;;;;;;;;;;;;;;;;;5113998;28;19919;-71
2022/04/22 11:50:05;;;;;;;;;;;;;;;;;;5112673;28;19912;-71
2022/04/22 11:52:31;;;;;;;;;;;;;;;;;;5113937;27;19939;-69
2022/04/22 11:54:57;;;;;;;;;;;;;;;;;;5114035;28;19911;-74
2022/04/22 11:57:22;;;;;;;;;;;;;;;;;;5113544;28;19923;-72
2022/04/22 12:05:32;;;;;;;;;;;;;;;;;;5114127;28;19912;-72
2022/04/22 12:05:32;;;;;;;;;;;;;;;;;;5113716;28;19918;-73
2022/04/22 12:08:02;;;;;;;;;;;;;;;;;;5113969;28;20412;-68
2022/04/22 12:10:27;;;;;;;;;;;;;;;;;;5113604;28;19916;-73
2022/04/22 12:12:56;;;;;;;;;;;;;;;;;;5113492;28;19912;-70
2022/04/22 12:15:21;;;;;;;;;;;;;;;;;;5113425;27;19916;-67
2022/04/22 12:17:47;;;;;;;;;;;;;;;;;;5113187;28;19915;-69
2022/04/22 12:20:13;;;;;;;;;;;;;;;;;;5113177;28;19963;-72
2022/04/22 12:22:38;;;;;;;;;;;;;;;;;;5113162;28;20062;-69
2022/04/22 12:25:07;;;;;;;;;;;;;;;;;;5113157;28;19963;-68
2022/04/22 12:27:33;;;;;;;;;;;;;;;;;;5113193;28;19911;-71
2022/04/22 12:29:59;;;;;;;;;;;;;;;;;;5113121;28;20002;-72
2022/04/22 12:32:25;;;;;;;;;;;;;;;;;;5112989;28;19919;-72
2022/04/22 12:34:50;;;;;;;;;;;;;;;;;;5113123;28;19911;-71
2022/04/22 12:37:16;;;;;;;;;;;;;;;;;;5112613;28;19912;-70
2022/04/22 12:39:46;;;;;;;;;;;;;;;;;;5112982;28;20372;-72
2022/04/22 12:42:17;;;;;;;;;;;;;;;;;;5112806;27;20018;-71
2022/04/22 12:52:07;;;;;;;;;;;;;;;;;;5112833;28;19959;-71
2022/04/22 12:53:24;;;;;;;;;;;;;;;;;;5111916;28;19919;-71
2022/04/22 12:56:00;;;;;;;;;;;;;;;;;;5112511;28;19911;-68
2022/04/22 12:58:25;;;;;;;;;;;;;;;;;;5112566;28;19918;-73
2022/04/22 13:00:52;;;;;;;;;;;;;;;;;;5112428;28;19912;-71
2022/04/22 13:03:17;;;;;;;;;;;;;;;;;;5112542;28;20351;-68
2022/04/22 13:05:42;;;;;;;;;;;;;;;;;;5112472;28;19954;-69
2022/04/22 13:08:11;;;;;;;;;;;;;;;;;;5112092;27;19911;-73
2022/04/22 13:10:37;;;;;;;;;;;;;;;;;;5112209;28;19912;-69
2022/04/22 13:13:03;;;;;;;;;;;;;;;;;;5112301;28;19911;-72
2022/04/22 13:15:28;;;;;;;;;;;;;;;;;;5112302;28;19919;-73
2022/04/22 13:17:53;;;;;;;;;;;;;;;;;;5111963;28;19947;-71
2022/04/22 13:20:19;;;;;;;;;;;;;;;;;;5112161;28;19916;-75
2022/04/22 13:22:45;;;;;;;;;;;;;;;;;;5112253;28;19912;-68
2022/04/22 13:25:11;;;;;;;;;;;;;;;;;;5111762;28;19923;-72
2022/04/22 13:27:40;;;;;;;;;;;;;;;;;;5111920;28;19916;-72
2022/04/22 13:30:07;;;;;;;;;;;;;;;;;;5112025;28;20033;-68
2022/04/22 13:32:32;;;;;;;;;;;;;;;;;;5111978;28;19915;-69
2022/04/22 13:34:57;;;;;;;;;;;;;;;;;;5112053;28;19912;-72
2022/04/22 13:37:23;;;;;;;;;;;;;;;;;;5111785;28;19916;-71
2022/04/22 13:39:48;;;;;;;;;;;;;;;;;;5111884;28;19912;-70
2022/04/22 13:42:13;;;;;;;;;;;;;;;;;;5111687;28;19957;-67
2022/04/22 13:52:50;;;;;;;;;;;;;;;;;;5111610;28;19965;-72
2022/04/22 13:55:16;;;;;;;;;;;;;;;;;;5111595;28;20373;-70
2022/04/22 13:57:41;;;;;;;;;;;;;;;;;;5111384;28;19911;-67
2022/04/22 14:00:07;;;;;;;;;;;;;;;;;;5111667;28;19911;-71
2022/04/22 14:02:32;;;;;;;;;;;;;;;;;;5111114;28;19911;-73
2022/04/22 14:04:58;;;;;;;;;;;;;;;;;;5110499;28;19919;-74
2022/04/22 14:07:23;;;;;;;;;;;;;;;;;;5111213;28;19919;-68
2022/04/22 14:09:49;;;;;;;;;;;;;;;;;;5111155;28;19911;-68
2022/04/22 14:12:14;;;;;;;;;;;;;;;;;;5111242;28;19918;-70
2022/04/22 14:14:39;;;;;;;;;;;;;;;;;;5111480;28;20336;-72
2022/04/22 14:17:06;;;;;;;;;;;;;;;;;;5111347;28;20378;-73
2022/04/22 14:19:31;;;;;;;;;;;;;;;;;;5110767;28;19918;-68
2022/04/22 14:21:59;;;;;;;;;;;;;;;;;;5111099;28;19916;-70
2022/04/22 14:24:26;;;;;;;;;;;;;;;;;;5111026;28;19918;-70
2022/04/22 14:26:53;;;;;;;;;;;;;;;;;;5110858;28;19943;-67
2022/04/22 14:29:19;;;;;;;;;;;;;;;;;;5110943;28;20410;-66
2022/04/22 14:31:44;;;;;;;;;;;;;;;;;;5110912;28;19912;-72
2022/04/22 14:34:10;;;;;;;;;;;;;;;;;;5110658;28;19919;-71
2022/04/22 14:36:35;;;;;;;;;;;;;;;;;;5110588;28;19912;-67
2022/04/22 14:39:00;;;;;;;;;;;;;;;;;;5110924;28;19912;-68
2022/04/22 14:41:26;;;;;;;;;;;;;;;;;;5110780;28;19912;-70
2022/04/22 14:43:51;;;;;;;;;;;;;;;;;;5109519;28;19926;-70
2022/04/22 14:46:17;;;;;;;;;;;;;;;;;;5111208;28;20006;-71
2022/04/22 14:48:42;;;;;;;;;;;;;;;;;;5110644;28;19920;-68
2022/04/22 14:51:08;;;;;;;;;;;;;;;;;;5110844;28;19912;-71
2022/04/22 14:53:33;;;;;;;;;;;;;;;;;;5111031;28;19916;-74
2022/04/22 14:55:59;;;;;;;;;;;;;;;;;;5109455;28;19918;-74
2022/04/22 14:58:25;;;;;;;;;;;;;;;;;;5110679;28;20386;-72
2022/04/22 15:00:50;;;;;;;;;;;;;;;;;;5110607;28;20267;-71
2022/04/22 15:03:15;;;;;;;;;;;;;;;;;;5110807;28;20116;-74
2022/04/22 15:05:41;;;;;;;;;;;;;;;;;;5110845;28;19911;-67
2022/04/22 15:08:06;;;;;;;;;;;;;;;;;;5110585;28;20410;-71
2022/04/22 15:10:32;;;;;;;;;;;;;;;;;;5110596;28;19943;-69
2022/04/22 15:12:57;;;;;;;;;;;;;;;;;;5110365;28;19912;-69
2022/04/22 15:15:23;;;;;;;;;;;;;;;;;;5110584;28;20382;-67
2022/04/22 15:26:00;;;;;;;;;;;;;;;;;;5114301;28;19941;-67
2022/04/22 15:28:25;;;;;;;;;;;;;;;;;;5114081;27;19912;-71
2022/04/22 15:31:06;;;;;;;;;;;;;;;;;;5114224;28;19931;-71
2022/04/22 15:33:35;;;;;;;;;;;;;;;;;;5114444;28;19954;-68
2022/04/22 15:36:01;;;;;;;;;;;;;;;;;;5114310;28;20383;-69
2022/04/22 15:38:30;;;;;;;;;;;;;;;;;;5113897;27;20207;-67
2022/04/22 15:40:55;;;;;;;;;;;;;;;;;;5114587;28;19922;-68
2022/04/22 15:43:20;;;;;;;;;;;;;;;;;;5114137;28;19912;-70
2022/04/22 15:45:46;;;;;;;;;;;;;;;;;;5113693;28;20355;-68
2022/04/22 15:48:11;;;;;;;;;;;;;;;;;;5113741;28;19911;-69
2022/04/22 15:50:36;;;;;;;;;;;;;;;;;;5114080;28;19918;-69
2022/04/22 15:53:02;;;;;;;;;;;;;;;;;;5113854;28;19966;-72
2022/04/22 15:55:27;;;;;;;;;;;;;;;;;;5114456;28;19921;-71
2022/04/22 15:57:53;;;;;;;;;;;;;;;;;;5113664;28;19962;-68
2022/04/22 16:00:18;;;;;;;;;;;;;;;;;;5113617;28;19970;-68
2022/04/22 16:02:44;;;;;;;;;;;;;;;;;;5113577;28;19912;-69
2022/04/22 16:05:09;;;;;;;;;;;;;;;;;;5113544;28;19937;-68
2022/04/22 16:07:35;;;;;;;;;;;;;;;;;;5113587;28;20421;-69
2022/04/22 16:10:00;;;;;;;;;;;;;;;;;;5113531;28;20391;-69
2022/04/22 16:15:20;;;;;;;;;;;;;;;;;;5113381;28;19965;-67
2022/04/22 16:17:46;;;;;;;;;;;;;;;;;;5113248;28;20010;-67
2022/04/22 16:20:12;;;;;;;;;;;;;;;;;;5113252;28;19999;-67
2022/04/22 16:22:37;;;;;;;;;;;;;;;;;;5113181;28;19911;-69
2022/04/22 16:25:03;;;;;;;;;;;;;;;;;;5113386;28;19919;-67
2022/04/22 16:27:29;;;;;;;;;;;;;;;;;;5113011;28;20006;-67
2022/04/22 16:29:54;;;;;;;;;;;;;;;;;;5112346;28;20014;-68
2022/04/22 16:32:20;;;;;;;;;;;;;;;;;;5113410;28;19911;-67
2022/04/22 16:34:45;;;;;;;;;;;;;;;;;;5112982;28;19990;-68
2022/04/22 16:37:10;;;;;;;;;;;;;;;;;;5112903;28;19918;-68
2022/04/22 16:39:36;;;;;;;;;;;;;;;;;;5112956;28;19950;-73
2022/04/22 16:42:01;;;;;;;;;;;;;;;;;;5112872;28;20337;-69
2022/04/22 16:44:27;;;;;;;;;;;;;;;;;;5112809;28;19918;-69
2022/04/22 16:46:55;;;;;;;;;;;;;;;;;;5112782;28;19920;-69
2022/04/22 16:49:23;;;;;;;;;;;;;;;;;;5112633;28;19911;-68
2022/04/22 16:51:49;;;;;;;;;;;;;;;;;;5112905;28;19911;-70
2022/04/22 16:54:15;;;;;;;;;;;;;;;;;;5112805;28;19918;-70